sensor_id;sensor_type;location;lat;lon;timestamp;pressure;altitude;pressure_sealevel;temperature;humidity
49102;BME280;34913;47.520;19.186;2023-08-01T00:01:29;99343.88;;;17.61;70.31
49102;BME280;34913;47.520;19.186;2023-08-01T00:03:54;99346.31;;;17.55;70.36
49102;BME280;34913;47.520;19.186;2023-08-01T00:06:20;99340.13;;;17.55;70.00
49102;BME280;34913;47.520;19.186;2023-08-01T00:08:47;99336.84;;;17.59;69.87
49102;BME280;34913;47.520;19.186;2023-08-01T00:11:12;99341.59;;;17.57;70.09
49102;BME280;34913;47.520;19.186;2023-08-01T00:13:39;99338.63;;;17.52;70.42
49102;BME280;34913;47.520;19.186;2023-08-01T00:16:05;99333.25;;;17.52;70.49
49102;BME280;34913;47.520;19.186;2023-08-01T00:18:30;99339.19;;;17.48;70.74
49102;BME280;34913;47.520;19.186;2023-08-01T00:20:56;99343.75;;;17.47;70.65
49102;BME280;34913;47.520;19.186;2023-08-01T00:23:21;99340.78;;;17.42;70.78
49102;BME280;34913;47.520;19.186;2023-08-01T00:25:47;99347.34;;;17.40;71.14
49102;BME280;34913;47.520;19.186;2023-08-01T00:28:17;99344.97;;;17.15;72.17
49102;BME280;34913;47.520;19.186;2023-08-01T00:30:43;99341.59;;;17.13;72.82
49102;BME280;34913;47.520;19.186;2023-08-01T00:33:08;99338.28;;;17.11;73.04
49102;BME280;34913;47.520;19.186;2023-08-01T00:35:34;99345.69;;;17.09;72.96
49102;BME280;34913;47.520;19.186;2023-08-01T00:37:59;99348.00;;;17.12;72.56
49102;BME280;34913;47.520;19.186;2023-08-01T00:40:30;99348.28;;;17.17;72.07
49102;BME280;34913;47.520;19.186;2023-08-01T00:42:56;99336.34;;;17.20;72.18
49102;BME280;34913;47.520;19.186;2023-08-01T00:45:22;99333.66;;;17.20;71.75
49102;BME280;34913;47.520;19.186;2023-08-01T00:47:50;99332.28;;;17.24;71.37
49102;BME280;34913;47.520;19.186;2023-08-01T00:50:16;99330.69;;;17.29;71.35
49102;BME280;34913;47.520;19.186;2023-08-01T00:52:45;99330.69;;;17.29;71.28
49102;BME280;34913;47.520;19.186;2023-08-01T00:55:11;99321.47;;;17.32;71.44
49102;BME280;34913;47.520;19.186;2023-08-01T00:57:36;99320.97;;;17.28;71.74
49102;BME280;34913;47.520;19.186;2023-08-01T01:00:01;99313.41;;;17.17;72.10
49102;BME280;34913;47.520;19.186;2023-08-01T01:02:27;99322.50;;;17.16;72.40
49102;BME280;34913;47.520;19.186;2023-08-01T01:04:52;99312.50;;;17.10;72.47
49102;BME280;34913;47.520;19.186;2023-08-01T01:07:19;99313.88;;;17.06;73.16
49102;BME280;34913;47.520;19.186;2023-08-01T01:09:44;99305.47;;;16.94;73.87
49102;BME280;34913;47.520;19.186;2023-08-01T01:12:09;99293.81;;;16.87;73.75
49102;BME280;34913;47.520;19.186;2023-08-01T01:14:35;99290.41;;;16.93;73.73
49102;BME280;34913;47.520;19.186;2023-08-01T01:17:00;99301.31;;;16.92;73.53
49102;BME280;34913;47.520;19.186;2023-08-01T01:19:26;99296.78;;;16.92;73.48
49102;BME280;34913;47.520;19.186;2023-08-01T01:22:16;99292.25;;;16.93;73.32
49102;BME280;34913;47.520;19.186;2023-08-01T01:24:42;99287.25;;;16.90;73.54
49102;BME280;34913;47.520;19.186;2023-08-01T01:27:08;99294.28;;;16.91;73.11
49102;BME280;34913;47.520;19.186;2023-08-01T01:29:34;99286.78;;;16.86;73.56
49102;BME280;34913;47.520;19.186;2023-08-01T01:32:00;99282.66;;;16.84;74.17
49102;BME280;34913;47.520;19.186;2023-08-01T01:34:27;99289.66;;;16.85;73.75
49102;BME280;34913;47.520;19.186;2023-08-01T01:36:53;99286.34;;;16.83;73.99
49102;BME280;34913;47.520;19.186;2023-08-01T01:39:18;99280.31;;;16.81;73.98
49102;BME280;34913;47.520;19.186;2023-08-01T01:41:44;99272.75;;;16.84;74.00
49102;BME280;34913;47.520;19.186;2023-08-01T01:44:09;99273.78;;;16.83;74.00
49102;BME280;34913;47.520;19.186;2023-08-01T01:46:35;99283.66;;;16.83;73.78
49102;BME280;34913;47.520;19.186;2023-08-01T01:49:00;99280.06;;;16.76;74.32
49102;BME280;34913;47.520;19.186;2023-08-01T01:51:26;99282.53;;;16.77;74.24
49102;BME280;34913;47.520;19.186;2023-08-01T01:53:52;99280.94;;;16.68;74.37
49102;BME280;34913;47.520;19.186;2023-08-01T01:56:17;99268.84;;;16.72;74.45
49102;BME280;34913;47.520;19.186;2023-08-01T01:58:43;99271.19;;;16.75;74.57
49102;BME280;34913;47.520;19.186;2023-08-01T02:01:08;99271.06;;;16.68;74.73
49102;BME280;34913;47.520;19.186;2023-08-01T02:03:34;99259.03;;;16.64;74.79
49102;BME280;34913;47.520;19.186;2023-08-01T02:06:03;99264.72;;;16.69;74.31
49102;BME280;34913;47.520;19.186;2023-08-01T02:08:29;99260.19;;;16.70;74.37
49102;BME280;34913;47.520;19.186;2023-08-01T02:10:54;99265.16;;;16.73;74.19
49102;BME280;34913;47.520;19.186;2023-08-01T02:13:26;99261.34;;;16.67;74.64
49102;BME280;34913;47.520;19.186;2023-08-01T02:15:53;99255.91;;;16.61;74.95
49102;BME280;34913;47.520;19.186;2023-08-01T02:18:18;99254.78;;;16.55;75.52
49102;BME280;34913;47.520;19.186;2023-08-01T02:20:44;99254.66;;;16.48;75.48
49102;BME280;34913;47.520;19.186;2023-08-01T02:23:09;99255.50;;;16.49;76.00
49102;BME280;34913;47.520;19.186;2023-08-01T02:25:41;99248.03;;;16.44;76.22
49102;BME280;34913;47.520;19.186;2023-08-01T02:28:06;99255.66;;;16.33;76.89
49102;BME280;34913;47.520;19.186;2023-08-01T02:30:33;99249.47;;;16.32;76.60
49102;BME280;34913;47.520;19.186;2023-08-01T02:32:59;99250.66;;;16.30;76.62
49102;BME280;34913;47.520;19.186;2023-08-01T02:35:24;99248.00;;;16.30;76.77
49102;BME280;34913;47.520;19.186;2023-08-01T02:37:50;99241.53;;;16.39;75.80
49102;BME280;34913;47.520;19.186;2023-08-01T02:40:15;99250.03;;;16.42;75.72
49102;BME280;34913;47.520;19.186;2023-08-01T02:42:40;99254.22;;;16.45;75.67
49102;BME280;34913;47.520;19.186;2023-08-01T02:45:06;99248.38;;;16.41;76.09
49102;BME280;34913;47.520;19.186;2023-08-01T02:47:32;99258.25;;;16.41;76.00
49102;BME280;34913;47.520;19.186;2023-08-01T02:49:57;99250.28;;;16.33;76.58
49102;BME280;34913;47.520;19.186;2023-08-01T02:52:22;99239.13;;;16.29;77.02
49102;BME280;34913;47.520;19.186;2023-08-01T02:54:48;99233.59;;;16.31;76.08
49102;BME280;34913;47.520;19.186;2023-08-01T02:57:13;99234.41;;;16.31;76.45
49102;BME280;34913;47.520;19.186;2023-08-01T02:59:38;99234.94;;;16.27;76.73
49102;BME280;34913;47.520;19.186;2023-08-01T03:02:04;99237.63;;;16.27;76.78
49102;BME280;34913;47.520;19.186;2023-08-01T03:04:29;99242.81;;;16.28;76.77
49102;BME280;34913;47.520;19.186;2023-08-01T03:06:55;99245.84;;;16.25;77.20
49102;BME280;34913;47.520;19.186;2023-08-01T03:09:20;99242.53;;;16.23;76.95
49102;BME280;34913;47.520;19.186;2023-08-01T03:11:46;99233.28;;;16.26;76.67
49102;BME280;34913;47.520;19.186;2023-08-01T03:14:11;99230.28;;;16.29;76.15
49102;BME280;34913;47.520;19.186;2023-08-01T03:16:36;99237.28;;;16.30;76.36
49102;BME280;34913;47.520;19.186;2023-08-01T03:19:02;99229.69;;;16.33;75.95
49102;BME280;34913;47.520;19.186;2023-08-01T03:21:33;99230.19;;;16.37;75.73
49102;BME280;34913;47.520;19.186;2023-08-01T03:24:00;99229.63;;;16.41;75.63
49102;BME280;34913;47.520;19.186;2023-08-01T03:26:25;99230.28;;;16.43;75.53
49102;BME280;34913;47.520;19.186;2023-08-01T03:28:53;99232.31;;;16.41;75.68
49102;BME280;34913;47.520;19.186;2023-08-01T03:31:19;99231.47;;;16.41;75.74
49102;BME280;34913;47.520;19.186;2023-08-01T03:33:45;99226.50;;;16.38;75.37
49102;BME280;34913;47.520;19.186;2023-08-01T03:36:10;99222.41;;;16.42;75.56
49102;BME280;34913;47.520;19.186;2023-08-01T03:38:36;99222.41;;;16.42;75.31
49102;BME280;34913;47.520;19.186;2023-08-01T03:41:01;99226.75;;;16.43;75.19
49102;BME280;34913;47.520;19.186;2023-08-01T03:43:29;99228.44;;;16.44;75.07
49102;BME280;34913;47.520;19.186;2023-08-01T03:45:54;99220.56;;;16.42;75.71
49102;BME280;34913;47.520;19.186;2023-08-01T03:48:20;99224.06;;;16.43;75.47
49102;BME280;34913;47.520;19.186;2023-08-01T03:50:45;99222.91;;;16.45;75.38
49102;BME280;34913;47.520;19.186;2023-08-01T03:53:11;99222.41;;;16.42;76.00
49102;BME280;34913;47.520;19.186;2023-08-01T03:55:36;99223.25;;;16.42;75.74
49102;BME280;34913;47.520;19.186;2023-08-01T03:58:02;99220.41;;;16.44;75.75
49102;BME280;34913;47.520;19.186;2023-08-01T04:00:27;99230.56;;;16.48;75.49
49102;BME280;34913;47.520;19.186;2023-08-01T04:02:58;99217.53;;;16.45;76.03
49102;BME280;34913;47.520;19.186;2023-08-01T04:05:23;99216.97;;;16.50;75.84
49102;BME280;34913;47.520;19.186;2023-08-01T04:07:49;99228.63;;;16.57;75.79
49102;BME280;34913;47.520;19.186;2023-08-01T04:10:14;99226.69;;;16.66;75.52
49102;BME280;34913;47.520;19.186;2023-08-01T04:12:40;99217.00;;;16.80;74.69
49102;BME280;34913;47.520;19.186;2023-08-01T04:15:07;99219.97;;;16.99;74.93
49102;BME280;34913;47.520;19.186;2023-08-01T04:17:33;99222.34;;;17.24;74.10
49102;BME280;34913;47.520;19.186;2023-08-01T04:19:58;99222.22;;;17.53;72.87
49102;BME280;34913;47.520;19.186;2023-08-01T04:22:24;99218.75;;;17.96;71.18
49102;BME280;34913;47.520;19.186;2023-08-01T04:24:49;99214.97;;;18.39;68.96
49102;BME280;34913;47.520;19.186;2023-08-01T04:27:15;99213.63;;;18.85;67.37
49102;BME280;34913;47.520;19.186;2023-08-01T04:29:40;99210.72;;;19.34;65.43
49102;BME280;34913;47.520;19.186;2023-08-01T04:32:06;99217.69;;;19.76;64.17
49102;BME280;34913;47.520;19.186;2023-08-01T04:34:32;99213.78;;;20.25;62.71
49102;BME280;34913;47.520;19.186;2023-08-01T04:36:57;99205.50;;;20.47;60.92
49102;BME280;34913;47.520;19.186;2023-08-01T04:39:22;99213.72;;;20.72;60.41
49102;BME280;34913;47.520;19.186;2023-08-01T04:41:48;99216.78;;;20.88;59.29
49102;BME280;34913;47.520;19.186;2023-08-01T04:44:15;99215.94;;;20.95;59.89
49102;BME280;34913;47.520;19.186;2023-08-01T04:46:40;99211.31;;;21.08;59.59
49102;BME280;34913;47.520;19.186;2023-08-01T04:49:06;99210.31;;;21.09;60.00
49102;BME280;34913;47.520;19.186;2023-08-01T04:51:31;99208.81;;;21.13;58.91
49102;BME280;34913;47.520;19.186;2023-08-01T04:53:57;99207.31;;;21.24;58.15
49102;BME280;34913;47.520;19.186;2023-08-01T04:56:22;99207.84;;;21.46;59.04
49102;BME280;34913;47.520;19.186;2023-08-01T04:58:47;99215.47;;;21.56;58.52
49102;BME280;34913;47.520;19.186;2023-08-01T05:01:13;99201.81;;;21.82;58.76
49102;BME280;34913;47.520;19.186;2023-08-01T05:03:38;99209.28;;;22.12;56.88
49102;BME280;34913;47.520;19.186;2023-08-01T05:06:04;99203.44;;;22.40;55.68
49102;BME280;34913;47.520;19.186;2023-08-01T05:08:29;99209.19;;;22.68;55.63
49102;BME280;34913;47.520;19.186;2023-08-01T05:10:54;99207.16;;;22.82;55.27
49102;BME280;34913;47.520;19.186;2023-08-01T05:13:20;99202.63;;;23.01;54.35
49102;BME280;34913;47.520;19.186;2023-08-01T05:15:46;99196.75;;;22.86;55.51
49102;BME280;34913;47.520;19.186;2023-08-01T05:18:18;99191.97;;;22.81;54.73
49102;BME280;34913;47.520;19.186;2023-08-01T05:20:43;99192.50;;;22.71;56.06
49102;BME280;34913;47.520;19.186;2023-08-01T05:23:09;99205.28;;;22.64;56.12
49102;BME280;34913;47.520;19.186;2023-08-01T05:25:34;99199.25;;;22.62;56.34
49102;BME280;34913;47.520;19.186;2023-08-01T05:28:00;99198.88;;;22.58;56.21
49102;BME280;34913;47.520;19.186;2023-08-01T05:30:25;99200.47;;;22.66;55.83
49102;BME280;34913;47.520;19.186;2023-08-01T05:32:51;99186.63;;;22.74;55.67
49102;BME280;34913;47.520;19.186;2023-08-01T05:35:16;99194.81;;;22.93;55.60
49102;BME280;34913;47.520;19.186;2023-08-01T05:37:43;99193.63;;;23.19;55.45
49102;BME280;34913;47.520;19.186;2023-08-01T05:40:09;99199.19;;;23.54;55.54
49102;BME280;34913;47.520;19.186;2023-08-01T05:42:34;99188.44;;;23.77;53.31
49102;BME280;34913;47.520;19.186;2023-08-01T05:45:00;99194.06;;;23.94;53.56
49102;BME280;34913;47.520;19.186;2023-08-01T05:47:25;99205.50;;;24.19;52.91
49102;BME280;34913;47.520;19.186;2023-08-01T05:49:51;99199.88;;;24.44;51.05
49102;BME280;34913;47.520;19.186;2023-08-01T05:52:16;99203.78;;;24.60;52.86
49102;BME280;34913;47.520;19.186;2023-08-01T05:54:42;99200.75;;;25.09;50.94
49102;BME280;34913;47.520;19.186;2023-08-01T05:57:07;99201.66;;;25.54;49.48
49102;BME280;34913;47.520;19.186;2023-08-01T05:59:33;99197.38;;;25.58;49.68
49102;BME280;34913;47.520;19.186;2023-08-01T06:01:58;99194.00;;;25.80;49.19
49102;BME280;34913;47.520;19.186;2023-08-01T06:04:24;99198.09;;;25.82;50.52
49102;BME280;34913;47.520;19.186;2023-08-01T06:06:49;99185.19;;;26.06;48.29
49102;BME280;34913;47.520;19.186;2023-08-01T06:09:14;99191.53;;;25.95;49.21
49102;BME280;34913;47.520;19.186;2023-08-01T06:11:40;99190.47;;;26.13;49.17
49102;BME280;34913;47.520;19.186;2023-08-01T06:14:06;99186.09;;;26.12;48.53
49102;BME280;34913;47.520;19.186;2023-08-01T06:16:31;99193.78;;;26.49;47.28
49102;BME280;34913;47.520;19.186;2023-08-01T06:18:57;99183.53;;;26.78;46.82
49102;BME280;34913;47.520;19.186;2023-08-01T06:21:22;99191.13;;;27.14;46.56
49102;BME280;34913;47.520;19.186;2023-08-01T06:23:48;99192.28;;;27.02;46.19
49102;BME280;34913;47.520;19.186;2023-08-01T06:26:13;99192.13;;;27.08;47.11
49102;BME280;34913;47.520;19.186;2023-08-01T06:28:40;99190.31;;;27.41;45.77
49102;BME280;34913;47.520;19.186;2023-08-01T06:31:06;99187.38;;;27.69;46.31
49102;BME280;34913;47.520;19.186;2023-08-01T06:33:31;99188.97;;;27.92;44.32
49102;BME280;34913;47.520;19.186;2023-08-01T06:35:57;99182.31;;;28.15;44.99
49102;BME280;34913;47.520;19.186;2023-08-01T06:38:22;99178.03;;;28.24;43.91
49102;BME280;34913;47.520;19.186;2023-08-01T06:40:47;99177.44;;;28.59;44.25
49102;BME280;34913;47.520;19.186;2023-08-01T06:43:13;99183.44;;;29.04;42.80
49102;BME280;34913;47.520;19.186;2023-08-01T06:45:38;99180.53;;;29.26;42.24
49102;BME280;34913;47.520;19.186;2023-08-01T06:48:04;99178.97;;;29.50;41.35
49102;BME280;34913;47.520;19.186;2023-08-01T06:50:29;99177.56;;;29.47;41.29
49102;BME280;34913;47.520;19.186;2023-08-01T06:52:54;99169.41;;;29.58;40.55
49102;BME280;34913;47.520;19.186;2023-08-01T06:55:20;99174.34;;;29.66;40.85
49102;BME280;34913;47.520;19.186;2023-08-01T06:57:45;99174.06;;;29.67;41.34
49102;BME280;34913;47.520;19.186;2023-08-01T07:00:11;99166.97;;;29.66;40.28
49102;BME280;34913;47.520;19.186;2023-08-01T07:02:36;99163.94;;;29.68;40.55
49102;BME280;34913;47.520;19.186;2023-08-01T07:05:02;99161.78;;;29.90;40.01
49102;BME280;34913;47.520;19.186;2023-08-01T07:07:28;99165.06;;;30.02;40.38
49102;BME280;34913;47.520;19.186;2023-08-01T07:09:53;99159.06;;;30.26;40.03
49102;BME280;34913;47.520;19.186;2023-08-01T07:12:18;99161.78;;;30.21;39.42
49102;BME280;34913;47.520;19.186;2023-08-01T07:14:44;99165.03;;;30.08;40.88
49102;BME280;34913;47.520;19.186;2023-08-01T07:17:09;99152.47;;;29.96;40.10
49102;BME280;34913;47.520;19.186;2023-08-01T07:19:34;99155.19;;;29.91;40.37
49102;BME280;34913;47.520;19.186;2023-08-01T07:22:00;99159.84;;;29.91;39.86
49102;BME280;34913;47.520;19.186;2023-08-01T07:24:25;99151.09;;;29.89;39.77
49102;BME280;34913;47.520;19.186;2023-08-01T07:26:51;99150.56;;;29.87;39.36
49102;BME280;34913;47.520;19.186;2023-08-01T07:29:16;99153.31;;;30.02;40.37
49102;BME280;34913;47.520;19.186;2023-08-01T07:31:42;99147.03;;;30.12;40.10
49102;BME280;34913;47.520;19.186;2023-08-01T07:34:08;99148.38;;;30.14;38.98
49102;BME280;34913;47.520;19.186;2023-08-01T07:36:33;99153.03;;;30.09;39.40
49102;BME280;34913;47.520;19.186;2023-08-01T07:38:59;99149.75;;;30.27;39.43
49102;BME280;34913;47.520;19.186;2023-08-01T07:41:24;99147.25;;;30.36;38.84
49102;BME280;34913;47.520;19.186;2023-08-01T07:43:49;99146.91;;;30.63;38.42
49102;BME280;34913;47.520;19.186;2023-08-01T07:46:15;99142.53;;;30.62;37.80
49102;BME280;34913;47.520;19.186;2023-08-01T07:48:40;99144.53;;;30.25;39.23
49102;BME280;34913;47.520;19.186;2023-08-01T07:51:06;99140.41;;;30.08;39.63
49102;BME280;34913;47.520;19.186;2023-08-01T07:53:36;99130.56;;;29.91;40.62
49102;BME280;34913;47.520;19.186;2023-08-01T07:56:01;99138.53;;;30.13;39.44
49102;BME280;34913;47.520;19.186;2023-08-01T07:58:28;99131.69;;;30.21;38.63
49102;BME280;34913;47.520;19.186;2023-08-01T08:00:53;99131.91;;;30.40;39.54
49102;BME280;34913;47.520;19.186;2023-08-01T08:03:19;99119.59;;;30.32;38.79
49102;BME280;34913;47.520;19.186;2023-08-01T08:05:47;99127.84;;;30.27;40.76
49102;BME280;34913;47.520;19.186;2023-08-01T08:08:13;99124.53;;;30.30;40.40
49102;BME280;34913;47.520;19.186;2023-08-01T08:10:38;99123.50;;;30.11;40.82
49102;BME280;34913;47.520;19.186;2023-08-01T08:13:04;99120.19;;;30.19;40.15
49102;BME280;34913;47.520;19.186;2023-08-01T08:15:29;99115.81;;;30.13;39.94
49102;BME280;34913;47.520;19.186;2023-08-01T08:17:59;99113.63;;;30.15;40.03
49102;BME280;34913;47.520;19.186;2023-08-01T08:20:24;99116.59;;;30.28;39.45
49102;BME280;34913;47.520;19.186;2023-08-01T08:22:49;99105.09;;;30.32;38.72
49102;BME280;34913;47.520;19.186;2023-08-01T08:25:15;99117.69;;;30.38;39.85
49102;BME280;34913;47.520;19.186;2023-08-01T08:27:40;99101.50;;;30.41;39.89
49102;BME280;34913;47.520;19.186;2023-08-01T08:30:06;99110.56;;;30.42;40.65
49102;BME280;34913;47.520;19.186;2023-08-01T08:32:32;99115.50;;;30.24;38.97
49102;BME280;34913;47.520;19.186;2023-08-01T08:34:57;99101.06;;;29.63;40.08
49102;BME280;34913;47.520;19.186;2023-08-01T08:37:22;99105.69;;;29.62;39.97
49102;BME280;34913;47.520;19.186;2023-08-01T08:39:48;99107.34;;;29.89;39.72
49102;BME280;34913;47.520;19.186;2023-08-01T08:42:13;99104.03;;;30.07;41.07
49102;BME280;34913;47.520;19.186;2023-08-01T08:44:43;99096.34;;;30.29;40.66
49102;BME280;34913;47.520;19.186;2023-08-01T08:47:10;99091.34;;;30.52;40.60
49102;BME280;34913;47.520;19.186;2023-08-01T08:49:36;99102.81;;;30.69;38.01
49102;BME280;34913;47.520;19.186;2023-08-01T08:52:02;99099.84;;;30.50;37.49
49102;BME280;34913;47.520;19.186;2023-08-01T08:54:30;99102.34;;;30.42;37.90
49102;BME280;34913;47.520;19.186;2023-08-01T08:56:56;99095.22;;;30.41;37.96
49102;BME280;34913;47.520;19.186;2023-08-01T08:59:25;99093.28;;;30.51;38.86
49102;BME280;34913;47.520;19.186;2023-08-01T09:01:50;99096.25;;;30.65;39.19
49102;BME280;34913;47.520;19.186;2023-08-01T09:04:16;99080.84;;;30.79;37.42
49102;BME280;34913;47.520;19.186;2023-08-01T09:06:46;99076.84;;;30.41;37.51
49102;BME280;34913;47.520;19.186;2023-08-01T09:09:13;99089.78;;;30.30;37.64
49102;BME280;34913;47.520;19.186;2023-08-01T09:11:50;99075.84;;;30.22;37.73
49102;BME280;34913;47.520;19.186;2023-08-01T09:14:17;99076.09;;;30.25;37.12
49102;BME280;34913;47.520;19.186;2023-08-01T09:16:44;99072.28;;;30.26;38.32
49102;BME280;34913;47.520;19.186;2023-08-01T09:19:10;99062.88;;;30.53;38.14
49102;BME280;34913;47.520;19.186;2023-08-01T09:21:38;99062.53;;;30.65;37.65
49102;BME280;34913;47.520;19.186;2023-08-01T09:24:20;99061.28;;;30.42;37.23
49102;BME280;34913;47.520;19.186;2023-08-01T09:26:48;99050.03;;;30.43;37.78
49102;BME280;34913;47.520;19.186;2023-08-01T09:29:16;99053.31;;;30.45;36.10
49102;BME280;34913;47.520;19.186;2023-08-01T09:31:42;99045.03;;;30.55;37.38
49102;BME280;34913;47.520;19.186;2023-08-01T09:34:19;99030.47;;;30.75;36.16
49102;BME280;34913;47.520;19.186;2023-08-01T09:36:45;99029.88;;;30.83;36.08
49102;BME280;34913;47.520;19.186;2023-08-01T09:39:19;99031.00;;;30.77;36.04
49102;BME280;34913;47.520;19.186;2023-08-01T09:41:46;99022.84;;;30.67;36.48
49102;BME280;34913;47.520;19.186;2023-08-01T09:44:16;99029.09;;;30.73;36.97
49102;BME280;34913;47.520;19.186;2023-08-01T09:46:55;99022.81;;;30.72;37.46
49102;BME280;34913;47.520;19.186;2023-08-01T09:49:20;99025.06;;;30.55;35.75
49102;BME280;34913;47.520;19.186;2023-08-01T09:51:47;99022.31;;;30.60;36.10
49102;BME280;34913;47.520;19.186;2023-08-01T09:54:13;99019.00;;;30.68;34.67
49102;BME280;34913;47.520;19.186;2023-08-01T09:56:40;99006.28;;;30.88;36.23
49102;BME280;34913;47.520;19.186;2023-08-01T09:59:07;99006.06;;;30.79;34.81
49102;BME280;34913;47.520;19.186;2023-08-01T10:01:33;99008.16;;;30.43;36.01
49102;BME280;34913;47.520;19.186;2023-08-01T10:03:58;99003.44;;;30.48;36.99
49102;BME280;34913;47.520;19.186;2023-08-01T10:06:28;98996.03;;;30.59;37.01
49102;BME280;34913;47.520;19.186;2023-08-01T10:08:57;98996.16;;;30.28;37.48
49102;BME280;34913;47.520;19.186;2023-08-01T10:11:23;99001.94;;;30.07;37.77
49102;BME280;34913;47.520;19.186;2023-08-01T10:13:48;98991.84;;;29.97;36.72
49102;BME280;34913;47.520;19.186;2023-08-01T10:16:15;98985.06;;;29.79;36.86
49102;BME280;34913;47.520;19.186;2023-08-01T10:18:41;98986.72;;;29.70;36.98
49102;BME280;34913;47.520;19.186;2023-08-01T10:21:11;98972.75;;;29.77;38.54
49102;BME280;34913;47.520;19.186;2023-08-01T10:23:37;98967.63;;;29.55;37.74
49102;BME280;34913;47.520;19.186;2023-08-01T10:26:05;98967.19;;;30.07;38.31
49102;BME280;34913;47.520;19.186;2023-08-01T10:28:36;98963.84;;;30.30;38.10
49102;BME280;34913;47.520;19.186;2023-08-01T10:31:16;98971.78;;;30.32;37.37
49102;BME280;34913;47.520;19.186;2023-08-01T10:33:44;98969.53;;;30.39;36.75
49102;BME280;34913;47.520;19.186;2023-08-01T10:36:14;98958.56;;;30.49;36.22
49102;BME280;34913;47.520;19.186;2023-08-01T10:38:50;98952.97;;;30.70;35.39
49102;BME280;34913;47.520;19.186;2023-08-01T10:41:30;98949.84;;;30.87;36.37
49102;BME280;34913;47.520;19.186;2023-08-01T10:44:15;98944.22;;;31.07;36.17
49102;BME280;34913;47.520;19.186;2023-08-01T10:46:54;98938.75;;;31.02;34.46
49102;BME280;34913;47.520;19.186;2023-08-01T10:49:21;98938.97;;;31.10;34.20
49102;BME280;34913;47.520;19.186;2023-08-01T10:51:57;98925.41;;;31.29;34.97
49102;BME280;34913;47.520;19.186;2023-08-01T10:54:24;98937.44;;;30.94;34.11
49102;BME280;34913;47.520;19.186;2023-08-01T10:56:52;98927.28;;;30.66;34.69
49102;BME280;34913;47.520;19.186;2023-08-01T10:59:19;98930.41;;;30.39;35.09
49102;BME280;34913;47.520;19.186;2023-08-01T11:01:48;98915.97;;;30.23;37.42
49102;BME280;34913;47.520;19.186;2023-08-01T11:04:23;98928.00;;;30.27;35.14
49102;BME280;34913;47.520;19.186;2023-08-01T11:06:54;98918.75;;;30.08;35.06
49102;BME280;34913;47.520;19.186;2023-08-01T11:09:26;98914.44;;;29.91;35.39
49102;BME280;34913;47.520;19.186;2023-08-01T11:11:55;98909.47;;;30.03;34.73
49102;BME280;34913;47.520;19.186;2023-08-01T11:14:22;98910.31;;;29.99;35.40
49102;BME280;34913;47.520;19.186;2023-08-01T11:16:49;98913.38;;;29.82;34.07
49102;BME280;34913;47.520;19.186;2023-08-01T11:19:24;98895.91;;;29.73;34.55
49102;BME280;34913;47.520;19.186;2023-08-01T11:21:51;98894.56;;;29.70;34.77
49102;BME280;34913;47.520;19.186;2023-08-01T11:24:18;98890.72;;;29.71;34.32
49102;BME280;34913;47.520;19.186;2023-08-01T11:26:45;98888.81;;;29.72;34.38
49102;BME280;34913;47.520;19.186;2023-08-01T11:29:12;98883.06;;;29.73;36.03
49102;BME280;34913;47.520;19.186;2023-08-01T11:31:38;98881.72;;;29.71;35.44
49102;BME280;34913;47.520;19.186;2023-08-01T11:34:04;98882.28;;;29.58;33.23
49102;BME280;34913;47.520;19.186;2023-08-01T11:36:30;98877.91;;;29.46;34.11
49102;BME280;34913;47.520;19.186;2023-08-01T11:38:59;98880.38;;;29.48;34.85
49102;BME280;34913;47.520;19.186;2023-08-01T11:41:28;98879.28;;;29.54;33.28
49102;BME280;34913;47.520;19.186;2023-08-01T11:43:55;98870.53;;;29.57;33.49
49102;BME280;34913;47.520;19.186;2023-08-01T11:46:22;98871.34;;;29.53;32.95
49102;BME280;34913;47.520;19.186;2023-08-01T11:48:47;98868.63;;;29.63;33.59
49102;BME280;34913;47.520;19.186;2023-08-01T11:51:15;98849.66;;;29.77;32.56
49102;BME280;34913;47.520;19.186;2023-08-01T11:53:40;98849.94;;;29.80;32.55
49102;BME280;34913;47.520;19.186;2023-08-01T11:56:06;98848.31;;;29.79;32.68
49102;BME280;34913;47.520;19.186;2023-08-01T11:58:35;98839.28;;;29.79;32.84
49102;BME280;34913;47.520;19.186;2023-08-01T12:01:05;98826.38;;;29.84;33.73
49102;BME280;34913;47.520;19.186;2023-08-01T12:03:31;98831.31;;;29.82;33.41
49102;BME280;34913;47.520;19.186;2023-08-01T12:06:18;98827.78;;;29.82;33.02
49102;BME280;34913;47.520;19.186;2023-08-01T12:08:46;98824.22;;;29.81;33.79
49102;BME280;34913;47.520;19.186;2023-08-01T12:11:19;98817.72;;;29.72;32.98
49102;BME280;34913;47.520;19.186;2023-08-01T12:13:47;98805.16;;;29.66;32.03
49102;BME280;34913;47.520;19.186;2023-08-01T12:16:13;98813.13;;;29.57;33.87
49102;BME280;34913;47.520;19.186;2023-08-01T12:18:42;98804.91;;;29.57;32.91
49102;BME280;34913;47.520;19.186;2023-08-01T12:21:08;98800.28;;;29.53;33.12
49102;BME280;34913;47.520;19.186;2023-08-01T12:23:35;98798.38;;;29.48;32.44
49102;BME280;34913;47.520;19.186;2023-08-01T12:26:00;98806.31;;;29.39;32.92
49102;BME280;34913;47.520;19.186;2023-08-01T12:28:26;98798.94;;;29.40;34.02
49102;BME280;34913;47.520;19.186;2023-08-01T12:30:51;98777.09;;;29.35;32.75
49102;BME280;34913;47.520;19.186;2023-08-01T12:33:17;98770.78;;;29.39;33.24
49102;BME280;34913;47.520;19.186;2023-08-01T12:35:42;98774.88;;;29.42;33.46
49102;BME280;34913;47.520;19.186;2023-08-01T12:38:09;98780.84;;;29.49;33.74
49102;BME280;34913;47.520;19.186;2023-08-01T12:40:34;98776.50;;;29.43;32.30
49102;BME280;34913;47.520;19.186;2023-08-01T12:43:00;98774.06;;;29.41;33.21
49102;BME280;34913;47.520;19.186;2023-08-01T12:45:25;98765.03;;;29.36;33.35
49102;BME280;34913;47.520;19.186;2023-08-01T12:47:51;98761.50;;;29.30;32.69